»·PEaware :: QXE2081 KPDX-KEUG

QXE2081 :: KPDX-KEUG

FLIGHT INFORMATION

Flight Status: Arrived
Operator:
Horizon Air
More flights by this operator :: More flights under this callsign
Pilot: Steven M. (455)
Aircraft: DEHAVILLAND DASH 8 400
(DH8D)
More flights by this aircraft type
Origin: KPDX Portland Intl
United States
Destination: KEUG Mahlon Sweet
United States
More flights between these airports :: More routes between these airports
Route: +PTLD1 BTG V23 EUG
File this flight plan on PilotEdge
Remarks:
Altitude:
(Current/Filed)
15,000ft
Speed:
(Current/Filed)
307kts
Departed: 20-Jan-19 01:22 PM
Arrived: 20-Jan-19 01:51 PM
Distance/Time
Traveled:
92nm/0:29
Distance/Time
To Go:
Arrived

Flight Plot

Page will automatically refresh every two minutes.

Flight plan parsing failed; only flown route is shown


Map Options




Map Legend


Flown Route
Filed Route
Departure Airport
Arrival Airport
Navaid (VOR, NDB)
Fix

Horizontal Profiles

Position Reports

Time Latitude Longitude Heading Altitude Ground
Speed
20-Jan-19 12:54 45.586762 -122.592895 53 37ft 0kts
20-Jan-19 12:55 45.586762 -122.592895 53 37ft 0kts
20-Jan-19 12:56 45.586762 -122.592895 53 37ft 0kts
20-Jan-19 12:57 45.586762 -122.592895 53 37ft 0kts
20-Jan-19 12:58 45.586762 -122.592895 53 37ft 0kts
20-Jan-19 12:59 45.586762 -122.592895 53 37ft 0kts
20-Jan-19 13:00 45.586762 -122.592895 53 37ft 0kts
20-Jan-19 13:01 45.586762 -122.592895 53 37ft 0kts
20-Jan-19 13:02 45.586762 -122.592894 53 37ft 0kts
20-Jan-19 13:03 45.586762 -122.592894 53 37ft 0kts
20-Jan-19 13:04 45.586762 -122.592894 53 37ft 0kts
20-Jan-19 13:05 45.586762 -122.592894 53 37ft 0kts
20-Jan-19 13:06 45.586762 -122.592894 53 37ft 0kts
20-Jan-19 13:07 45.586762 -122.592894 53 37ft 0kts
20-Jan-19 13:08 45.586762 -122.592894 53 37ft 0kts
20-Jan-19 13:09 45.586762 -122.592894 53 37ft 0kts
20-Jan-19 13:10 45.586762 -122.592894 53 37ft 0kts
20-Jan-19 13:11 45.586543 -122.593295 51 37ft 2kts
20-Jan-19 13:12 45.586432 -122.594024 124 37ft 2kts
20-Jan-19 13:13 45.586450 -122.594061 124 37ft 0kts
20-Jan-19 13:14 45.586450 -122.594061 124 37ft 0kts
20-Jan-19 13:15 45.586450 -122.594061 124 37ft 0kts
20-Jan-19 13:16 45.586394 -122.593946 125 37ft 1kts
20-Jan-19 13:17 45.584722 -122.591032 127 37ft 7kts
20-Jan-19 13:18 45.583321 -122.587911 119 37ft 10kts
20-Jan-19 13:19 45.582084 -122.584739 119 37ft 0kts
20-Jan-19 13:20 45.581014 -122.585096 297 37ft 20kts
20-Jan-19 13:21 45.596277 -122.626740 295 1684ft 154kts
20-Jan-19 13:22 45.619885 -122.688041 299 4321ft 190kts
20-Jan-19 13:23 45.648114 -122.759779 299 5978ft 231kts
20-Jan-19 13:24 45.685673 -122.841375 328 6802ft 273kts
20-Jan-19 13:25 45.746333 -122.809539 70 9259ft 270kts
20-Jan-19 13:26 45.715706 -122.717159 135 10860ft 283kts
20-Jan-19 13:27 45.654700 -122.647969 167 12409ft 279kts
20-Jan-19 13:28 45.581108 -122.658264 194 14144ft 265kts
20-Jan-19 13:29 45.509280 -122.685981 197 14979ft 286kts
20-Jan-19 13:30 45.429067 -122.718203 197 14999ft 315kts
20-Jan-19 13:31 45.342852 -122.752183 197 15003ft 328kts
20-Jan-19 13:32 45.256932 -122.785939 197 15005ft 331kts
20-Jan-19 13:33 45.169578 -122.820116 197 15007ft 326kts
20-Jan-19 13:34 45.083821 -122.853564 197 15007ft 323kts
20-Jan-19 13:35 44.998084 -122.886992 197 15007ft 323kts
20-Jan-19 13:36 44.912107 -122.920601 198 15008ft 324kts
20-Jan-19 13:37 44.827144 -122.959157 198 15008ft 325kts
20-Jan-19 13:38 44.739696 -122.989356 195 15009ft 326kts
20-Jan-19 13:39 44.652660 -123.020069 197 15010ft 325kts
20-Jan-19 13:40 44.580450 -123.079365 226 13840ft 300kts
20-Jan-19 13:41 44.527815 -123.153493 225 11881ft 249kts
20-Jan-19 13:42 44.479232 -123.212333 205 9208ft 249kts
20-Jan-19 13:43 44.407640 -123.222745 182 5514ft 267kts
20-Jan-19 13:44 44.336386 -123.222242 180 2912ft 229kts
20-Jan-19 13:45 44.282678 -123.221269 181 2330ft 184kts
20-Jan-19 13:46 44.234659 -123.220622 181 1998ft 152kts
20-Jan-19 13:47 44.197310 -123.220008 180 1588ft 121kts
20-Jan-19 13:48 44.165196 -123.219371 181 922ft 114kts
20-Jan-19 13:49 44.133983 -123.219104 180 394ft 110kts
20-Jan-19 13:50 44.121407 -123.218923 177 376ft 3kts
20-Jan-19 13:51 44.120986 -123.217083 92 376ft 6kts
20-Jan-19 13:52 44.120977 -123.214663 87 376ft 10kts
20-Jan-19 13:53 44.120497 -123.213258 215 376ft 2kts
20-Jan-19 13:54 44.120087 -123.213644 214 376ft 0kts
20-Jan-19 13:55 44.120087 -123.213644 214 376ft 0kts
20-Jan-19 13:56 44.120087 -123.213644 214 376ft 0kts
20-Jan-19 13:57 44.120087 -123.213644 214 376ft 0kts
20-Jan-19 13:58 44.120087 -123.213644 214 376ft 0kts

Navigation Log

Ident Type
Flight plan parsing failed, navigation log unavailable